Time;durP1;ratioP1;P1;durP2;ratioP2;P2;SDS_P1;SDS_P2;PMS_P1;PMS_P2;Temp;Humidity;BMP_temperature;BMP_pressure;BME280_temperature;BME280_humidity;BME280_pressure;Samples;Min_cycle;Max_cycle;Signal;HPM_P1;HPM_P2
2022/04/01 00:01:22;;;;;;;2.13;2.03;;;8.30;99.90;;;;;;4980757;28;20557;-87
2022/04/01 00:03:48;;;;;;;3.07;2.17;;;8.40;99.90;;;;;;4998620;28;20177;-88
2022/04/01 00:06:14;;;;;;;2.23;2.10;;;8.40;99.90;;;;;;4999095;28;20259;-89
2022/04/01 00:08:40;;;;;;;1.80;1.80;;;8.50;99.90;;;;;;5001992;28;20217;-88
2022/04/01 00:11:06;;;;;;;2.10;2.00;;;8.60;99.90;;;;;;5007191;28;20242;-89
2022/04/01 00:13:31;;;;;;;1.90;1.90;;;8.60;99.90;;;;;;4990572;28;20174;-87
2022/04/01 00:15:59;;;;;;;1.87;1.87;;;8.50;99.90;;;;;;5009551;28;20184;-89
2022/04/01 00:18:25;;;;;;;2.20;2.00;;;8.50;99.90;;;;;;5013267;28;20182;-84
2022/04/01 00:20:51;;;;;;;1.97;1.97;;;8.50;99.90;;;;;;5014608;28;20181;-83
2022/04/01 00:23:17;;;;;;;1.90;1.80;;;8.60;99.90;;;;;;5015024;28;20241;-86
2022/04/01 00:25:43;;;;;;;2.00;1.90;;;8.60;99.90;;;;;;5008538;28;20185;-86
2022/04/01 00:28:10;;;;;;;2.10;2.00;;;8.60;99.90;;;;;;5000230;28;20207;-85
2022/04/01 00:30:38;;;;;;;2.20;2.10;;;8.50;99.90;;;;;;4997193;28;20168;-87
2022/04/01 00:33:08;;;;;;;2.20;2.10;;;8.50;99.90;;;;;;4996929;28;20618;-86
2022/04/01 00:35:35;;;;;;;1.90;1.80;;;8.50;99.90;;;;;;4996851;28;20172;-86
2022/04/01 00:38:01;;;;;;;1.93;1.83;;;8.50;99.90;;;;;;4997127;28;20203;-87
2022/04/01 00:40:27;;;;;;;2.10;2.00;;;8.50;99.90;;;;;;4975710;28;20321;-87
2022/04/01 00:42:53;;;;;;;2.10;2.00;;;8.50;99.90;;;;;;4977398;28;20607;-85
2022/04/01 00:45:19;;;;;;;1.87;1.77;;;8.50;99.90;;;;;;4979605;28;20172;-85
2022/04/01 00:47:45;;;;;;;2.07;1.97;;;8.50;99.90;;;;;;4980779;28;20236;-84
2022/04/01 00:50:11;;;;;;;2.00;1.80;;;8.40;99.90;;;;;;4978577;28;20186;-86
2022/04/01 00:52:37;;;;;;;2.10;2.00;;;8.40;99.90;;;;;;4977160;28;20235;-87
2022/04/01 00:55:09;;;;;;;1.90;1.80;;;8.40;99.90;;;;;;4977500;28;20523;-86
2022/04/01 00:57:36;;;;;;;2.00;1.90;;;8.30;99.90;;;;;;4976599;28;20179;-86
2022/04/01 01:00:04;;;;;;;2.10;2.00;;;8.40;99.90;;;;;;4978264;28;20199;-86
2022/04/01 01:02:30;;;;;;;1.73;1.73;;;8.30;99.90;;;;;;4978954;28;20165;-89
2022/04/01 01:04:58;;;;;;;1.90;1.70;;;8.30;99.90;;;;;;4976858;28;20242;-86
2022/04/01 01:07:24;;;;;;;2.00;1.90;;;8.30;99.90;;;;;;4976426;28;20219;-87
2022/04/01 01:09:50;;;;;;;2.23;1.97;;;8.30;99.90;;;;;;4976541;28;20679;-89
2022/04/01 01:12:17;;;;;;;2.20;1.83;;;8.40;99.90;;;;;;4976741;28;20181;-88
2022/04/01 01:14:44;;;;;;;1.97;1.60;;;8.30;99.90;;;;;;4977622;28;20172;-84
2022/04/01 01:17:12;;;;;;;1.80;1.70;;;8.30;99.90;;;;;;4980549;28;20168;-86
2022/04/01 01:19:39;;;;;;;1.90;1.80;;;8.30;99.90;;;;;;4977999;28;20515;-84
2022/04/01 01:22:06;;;;;;;2.00;1.90;;;8.40;99.90;;;;;;4981787;28;20578;-85
2022/04/01 01:24:36;;;;;;;1.67;1.67;;;8.30;99.90;;;;;;4979016;28;20167;-88
2022/04/01 01:27:05;;;;;;;2.00;1.90;;;8.30;99.90;;;;;;4977372;28;20246;-90
2022/04/01 01:29:33;;;;;;;2.00;1.90;;;8.30;99.90;;;;;;4976895;28;20182;-85
2022/04/01 01:32:01;;;;;;;1.70;1.60;;;8.30;99.90;;;;;;4978318;28;20175;-84
2022/04/01 01:34:29;;;;;;;1.80;1.70;;;8.30;99.90;;;;;;4978931;28;20186;-86
2022/04/01 01:36:56;;;;;;;1.87;1.77;;;8.20;99.90;;;;;;4978114;28;20188;-91
2022/04/01 01:39:22;;;;;;;1.73;1.70;;;8.30;99.90;;;;;;4982365;28;20248;-92
2022/04/01 01:41:53;;;;;;;1.70;1.60;;;8.30;99.90;;;;;;4996692;28;20646;-90
2022/04/01 01:44:21;;;;;;;1.60;1.60;;;8.20;99.90;;;;;;4996801;28;20211;-89
2022/04/01 01:46:47;;;;;;;1.80;1.70;;;8.20;99.90;;;;;;4978803;28;20626;-92
2022/04/01 01:49:13;;;;;;;2.37;1.80;;;8.20;99.90;;;;;;4996689;28;20175;-86
2022/04/01 01:54:43;;;;;;;1.87;1.77;;;8.20;99.90;;;;;;4999812;28;20212;-85
2022/04/01 01:57:10;;;;;;;1.90;1.80;;;8.20;99.90;;;;;;4983075;28;20186;-86
2022/04/01 01:59:36;;;;;;;1.87;1.77;;;8.20;99.90;;;;;;4995927;28;20182;-85
2022/04/01 02:02:05;;;;;;;2.10;2.00;;;8.10;99.90;;;;;;4995592;28;20185;-86
2022/04/01 02:04:32;;;;;;;2.03;1.93;;;8.10;99.90;;;;;;4995415;28;20172;-86
2022/04/01 02:06:59;;;;;;;2.10;2.00;;;8.10;99.90;;;;;;4995089;28;20684;-87
2022/04/01 02:09:25;;;;;;;2.27;2.07;;;8.10;99.90;;;;;;4995369;28;20647;-91
2022/04/01 02:11:52;;;;;;;2.27;2.17;;;8.10;99.90;;;;;;4995160;28;20185;-88
2022/04/01 02:14:18;;;;;;;2.13;2.03;;;8.20;99.90;;;;;;4995146;28;20678;-86
2022/04/01 02:16:44;;;;;;;1.80;1.80;;;8.20;99.90;;;;;;4995097;28;20178;-88
2022/04/01 02:19:11;;;;;;;1.90;1.80;;;8.20;99.90;;;;;;4981214;28;20229;-85
2022/04/01 02:21:37;;;;;;;2.23;2.10;;;8.20;99.90;;;;;;5002197;28;20181;-86
2022/04/01 02:24:06;;;;;;;1.60;1.60;;;8.20;99.90;;;;;;5003171;28;20182;-85
2022/04/01 02:26:31;;;;;;;2.70;2.30;;;8.20;99.90;;;;;;5002508;28;20202;-84
2022/04/01 02:28:59;;;;;;;1.83;1.73;;;8.20;99.90;;;;;;5003123;28;20204;-89
2022/04/01 02:31:25;;;;;;;1.80;1.80;;;8.30;99.90;;;;;;5002869;28;20251;-91
2022/04/01 02:33:51;;;;;;;2.40;2.00;;;8.40;99.90;;;;;;4997452;28;20177;-89
2022/04/01 02:36:17;;;;;;;1.80;1.80;;;8.40;99.90;;;;;;4978129;28;20190;-92
2022/04/01 02:38:43;;;;;;;1.90;1.90;;;8.40;99.90;;;;;;4995237;28;20226;-90
2022/04/01 02:41:14;;;;;;;2.00;1.90;;;8.50;99.90;;;;;;4977501;28;20272;-84
2022/04/01 02:43:40;;;;;;;2.00;1.90;;;8.50;99.90;;;;;;4994712;28;20156;-86
2022/04/01 02:46:06;;;;;;;1.93;1.93;;;8.40;99.90;;;;;;4994318;28;20201;-86
2022/04/01 02:48:32;;;;;;;2.10;1.77;;;8.40;99.90;;;;;;4994451;28;20167;-88
2022/04/01 02:50:58;;;;;;;2.23;2.00;;;8.40;99.90;;;;;;4994541;28;20221;-85
2022/04/01 02:53:24;;;;;;;2.27;2.17;;;8.40;99.90;;;;;;4994403;28;20604;-86
2022/04/01 02:55:50;;;;;;;1.97;1.87;;;8.40;99.90;;;;;;4994510;28;20179;-86
2022/04/01 02:58:16;;;;;;;2.23;2.13;;;8.40;99.90;;;;;;4994317;28;20171;-90
2022/04/01 03:00:42;;;;;;;2.37;2.27;;;8.50;99.90;;;;;;4994252;28;20636;-84
2022/04/01 03:03:09;;;;;;;2.20;2.10;;;8.40;99.90;;;;;;4977083;28;20182;-85
2022/04/01 03:05:40;;;;;;;2.37;2.27;;;8.50;99.90;;;;;;4977136;28;20187;-84
2022/04/01 03:08:07;;;;;;;2.30;2.20;;;8.50;99.90;;;;;;4994374;28;20187;-84
2022/04/01 03:10:39;;;;;;;2.80;2.70;;;8.60;99.90;;;;;;4994825;28;20177;-84
2022/04/01 03:13:08;;;;;;;3.23;3.00;;;8.50;99.90;;;;;;4999736;28;20166;-83
2022/04/01 03:15:35;;;;;;;2.63;2.53;;;8.50;99.90;;;;;;4998842;28;20655;-83
2022/04/01 03:18:01;;;;;;;3.03;2.77;;;8.60;99.90;;;;;;4995300;28;20585;-84
2022/04/01 03:20:29;;;;;;;3.23;2.93;;;8.60;99.90;;;;;;4994558;28;20175;-84
2022/04/01 03:22:57;;;;;;;2.70;2.60;;;8.60;99.90;;;;;;4998781;28;20180;-83
2022/04/01 03:25:23;;;;;;;2.90;2.70;;;8.60;99.90;;;;;;4998505;28;20310;-82
2022/04/01 03:27:49;;;;;;;3.00;2.90;;;8.40;99.90;;;;;;5002967;28;20212;-83
2022/04/01 03:30:17;;;;;;;3.67;3.33;;;8.50;99.90;;;;;;5000605;28;20179;-83
2022/04/01 03:32:44;;;;;;;2.97;2.77;;;8.60;99.90;;;;;;5006236;28;20235;-83
2022/04/01 03:35:15;;;;;;;3.67;3.37;;;8.60;99.90;;;;;;5001743;28;20198;-85
2022/04/01 03:37:42;;;;;;;3.20;3.10;;;8.60;99.90;;;;;;4983030;28;20190;-80
2022/04/01 03:40:14;;;;;;;3.33;3.13;;;8.60;99.90;;;;;;5011120;28;20251;-81
2022/04/01 03:42:41;;;;;;;3.63;3.33;;;8.60;99.90;;;;;;5013075;28;20183;-82
2022/04/01 03:45:08;;;;;;;3.47;3.23;;;8.60;99.90;;;;;;5012295;28;20176;-84
2022/04/01 03:48:09;;;;;;;3.40;3.20;;;8.60;99.90;;;;;;5008601;28;20203;-86
2022/04/01 03:50:40;;;;;;;3.40;3.20;;;8.60;99.90;;;;;;4986041;28;20182;-84
2022/04/01 03:53:08;;;;;;;4.53;4.13;;;8.60;99.90;;;;;;4997048;28;20254;-91
2022/04/01 03:55:37;;;;;;;3.77;3.57;;;8.50;99.90;;;;;;5001973;28;20258;-84
2022/04/01 03:58:13;;;;;;;4.13;3.83;;;8.60;99.90;;;;;;4989631;28;20658;-83
2022/04/01 04:00:41;;;;;;;5.33;4.50;;;8.60;99.90;;;;;;5007048;28;20246;-87
2022/04/01 04:03:10;;;;;;;4.93;4.57;;;8.50;99.90;;;;;;5004935;28;20189;-84
2022/04/01 04:05:38;;;;;;;5.23;4.83;;;8.60;99.90;;;;;;5002427;28;20178;-82
2022/04/01 04:08:10;;;;;;;5.50;4.60;;;8.50;99.90;;;;;;5004246;28;20221;-84
2022/04/01 04:10:37;;;;;;;5.20;4.80;;;8.50;99.90;;;;;;5005781;28;20168;-83
2022/04/01 04:13:06;;;;;;;4.43;4.13;;;8.50;99.90;;;;;;5010155;28;20222;-84
2022/04/01 04:16:08;;;;;;;4.60;4.20;;;8.50;99.90;;;;;;5003061;28;20670;-83
2022/04/01 04:18:55;;;;;;;6.27;4.60;;;8.60;99.90;;;;;;5005260;28;20186;-85
2022/04/01 04:21:29;;;;;;;5.13;4.73;;;8.60;99.90;;;;;;4996151;28;20172;-85
2022/04/01 04:24:02;;;;;;;5.60;5.03;;;8.60;99.90;;;;;;5012481;28;20191;-82
2022/04/01 04:26:46;;;;;;;4.13;3.83;;;8.60;99.90;;;;;;4986077;28;20208;-84
2022/04/01 04:29:14;;;;;;;4.07;3.87;;;8.60;99.90;;;;;;5004739;28;20166;-85
2022/04/01 04:31:59;;;;;;;3.83;3.60;;;8.50;99.90;;;;;;4999645;28;20534;-86
2022/04/01 04:34:36;;;;;;;3.30;3.13;;;8.50;99.90;;;;;;4981281;28;20165;-87
2022/04/01 04:37:04;;;;;;;3.80;3.50;;;8.40;99.90;;;;;;4996385;28;20173;-87
2022/04/01 04:39:30;;;;;;;4.53;3.30;;;8.40;99.90;;;;;;4979414;28;20253;-85
2022/04/01 04:41:57;;;;;;;3.80;3.47;;;8.40;99.90;;;;;;4997288;28;20217;-84
2022/04/01 04:44:28;;;;;;;4.50;3.97;;;8.40;99.90;;;;;;4997113;28;20167;-88
2022/04/01 04:46:56;;;;;;;4.27;3.97;;;8.30;99.90;;;;;;4996480;28;20612;-87
2022/04/01 04:49:22;;;;;;;4.17;3.87;;;8.30;99.90;;;;;;4997231;28;20177;-85
2022/04/01 04:51:48;;;;;;;4.03;3.73;;;8.20;99.90;;;;;;4997674;28;20174;-85
2022/04/01 04:54:15;;;;;;;4.40;3.83;;;8.20;99.90;;;;;;4999399;28;20180;-87
2022/04/01 04:56:41;;;;;;;4.30;3.90;;;8.30;99.90;;;;;;5006069;28;20180;-86
2022/04/01 04:59:09;;;;;;;4.53;4.00;;;8.30;99.90;;;;;;5006505;28;20191;-85
2022/04/01 05:02:02;;;;;;;4.43;4.13;;;8.30;99.90;;;;;;4999422;28;20174;-88
2022/04/01 05:04:46;;;;;;;4.63;4.13;;;8.30;99.90;;;;;;4968203;28;20250;-85
2022/04/01 05:07:42;;;;;;;4.83;4.43;;;8.30;99.90;;;;;;4998069;28;20204;-84
2022/04/01 05:10:16;;;;;;;4.83;4.53;;;8.30;99.90;;;;;;5001543;28;20155;-86
2022/04/01 05:13:08;;;;;;;5.10;4.70;;;8.40;99.90;;;;;;5000572;28;20198;-86
2022/04/01 05:15:37;;;;;;;5.53;5.10;;;8.40;99.90;;;;;;5002160;28;20180;-84
2022/04/01 05:18:21;;;;;;;5.97;5.57;;;8.60;99.90;;;;;;5007508;28;20174;-84
2022/04/01 05:21:01;;;;;;;6.20;5.70;;;8.60;99.90;;;;;;4978971;28;20186;-91
2022/04/01 05:23:32;;;;;;;6.27;5.87;;;8.70;99.90;;;;;;4996129;28;20173;-89
2022/04/01 05:26:12;;;;;;;6.13;5.73;;;8.70;99.90;;;;;;4996084;28;20185;-88
2022/04/01 05:28:48;;;;;;;6.20;5.57;;;8.80;99.90;;;;;;4996237;28;20176;-90
2022/04/01 05:31:34;;;;;;;7.30;6.60;;;8.70;99.90;;;;;;4998852;28;20195;-84
2022/04/01 05:34:20;;;;;;;6.07;5.67;;;8.70;99.90;;;;;;4988523;28;20175;-90
2022/04/01 05:36:48;;;;;;;6.57;6.10;;;8.70;99.90;;;;;;5003768;28;20242;-86
2022/04/01 05:39:15;;;;;;;7.47;6.70;;;8.70;99.90;;;;;;5006340;28;20260;-89
2022/04/01 05:41:41;;;;;;;7.23;6.63;;;8.80;99.90;;;;;;4997590;28;20180;-89
2022/04/01 05:44:09;;;;;;;7.03;6.47;;;8.70;99.90;;;;;;5007902;28;20181;-89
2022/04/01 05:46:37;;;;;;;7.63;7.03;;;8.80;99.90;;;;;;5007490;28;20559;-91
2022/04/01 05:49:03;;;;;;;7.20;6.60;;;8.80;99.90;;;;;;4983210;28;20188;-92
2022/04/01 05:51:33;;;;;;;6.93;6.43;;;8.80;99.90;;;;;;4996609;28;20176;-88
2022/04/01 05:54:00;;;;;;;6.83;6.37;;;8.90;99.90;;;;;;4978755;28;20212;-91
2022/04/01 05:56:28;;;;;;;7.53;7.03;;;8.90;99.90;;;;;;4995643;28;20165;-87
2022/04/01 05:58:53;;;;;;;7.20;6.70;;;9.00;99.90;;;;;;4978379;28;20185;-91
2022/04/01 06:01:28;;;;;;;6.67;6.17;;;9.00;99.90;;;;;;4995616;28;20201;-86
2022/04/01 06:04:28;;;;;;;7.03;6.53;;;9.00;99.90;;;;;;4995533;28;20171;-93
2022/04/01 06:07:18;;;;;;;7.33;6.73;;;9.00;99.90;;;;;;4978754;28;20243;-88
2022/04/01 06:10:00;;;;;;;7.70;6.97;;;9.00;99.90;;;;;;4978305;28;20192;-91
2022/04/01 06:13:04;;;;;;;8.80;7.47;;;9.00;99.90;;;;;;4995893;28;20419;-91
2022/04/01 06:16:02;;;;;;;9.27;8.10;;;9.00;99.90;;;;;;4996193;28;20162;-92
2022/04/01 06:19:06;;;;;;;9.40;8.50;;;9.00;99.90;;;;;;4992537;28;20667;-92
2022/04/01 06:21:47;;;;;;;8.37;7.57;;;9.10;99.90;;;;;;4995044;28;20197;-88
2022/04/01 06:24:52;;;;;;;9.57;8.50;;;9.10;99.90;;;;;;4996031;28;20227;-91
2022/04/01 06:27:25;;;;;;;9.33;8.47;;;9.10;99.90;;;;;;4965195;28;20262;-86
2022/04/01 06:30:17;;;;;;;9.43;8.53;;;9.10;99.90;;;;;;4994980;28;20256;-89
2022/04/01 06:33:02;;;;;;;9.37;8.40;;;9.10;99.90;;;;;;4995203;28;20613;-84
2022/04/01 06:35:35;;;;;;;9.33;8.47;;;9.10;99.90;;;;;;4996274;28;20164;-86
2022/04/01 06:38:10;;;;;;;8.93;8.13;;;9.20;99.90;;;;;;4981643;28;20172;-87
2022/04/01 06:41:06;;;;;;;9.07;8.17;;;9.20;99.90;;;;;;4994637;28;20225;-89
2022/04/01 06:43:34;;;;;;;11.13;8.50;;;9.10;99.90;;;;;;4994845;28;20178;-89
2022/04/01 06:46:00;;;;;;;9.10;8.30;;;9.10;99.90;;;;;;5000585;28;20545;-84
2022/04/01 06:48:26;;;;;;;9.10;8.20;;;9.20;99.90;;;;;;4999094;28;20676;-85
2022/04/01 06:50:54;;;;;;;9.20;8.40;;;9.30;99.90;;;;;;4999685;28;20239;-85
2022/04/01 06:53:20;;;;;;;9.43;8.37;;;9.30;99.90;;;;;;4995514;28;20231;-84
2022/04/01 06:55:47;;;;;;;8.40;7.80;;;9.40;99.90;;;;;;4994556;28;20179;-87
2022/04/01 06:58:13;;;;;;;9.30;8.13;;;9.50;99.90;;;;;;4980127;28;20541;-83
2022/04/01 07:00:40;;;;;;;11.87;7.77;;;9.60;99.90;;;;;;4977522;28;20184;-84
2022/04/01 07:03:07;;;;;;;8.80;6.87;;;9.70;99.90;;;;;;4995189;28;20254;-84
2022/04/01 07:05:36;;;;;;;7.60;7.03;;;9.90;99.90;;;;;;4994162;28;20243;-84
2022/04/01 07:08:06;;;;;;;8.03;7.20;;;10.00;99.90;;;;;;4994246;28;20241;-84
2022/04/01 07:10:32;;;;;;;7.53;6.93;;;10.20;99.90;;;;;;4993903;28;20175;-84
2022/04/01 07:12:58;;;;;;;8.47;7.77;;;10.40;99.90;;;;;;4994765;28;20176;-84
2022/04/01 07:15:25;;;;;;;7.63;6.77;;;10.40;99.90;;;;;;4976637;28;20208;-83
2022/04/01 07:17:51;;;;;;;7.07;6.43;;;10.50;99.90;;;;;;4994028;28;20186;-84
2022/04/01 07:20:20;;;;;;;7.30;6.70;;;10.70;99.90;;;;;;4993769;28;20655;-84
2022/04/01 07:22:47;;;;;;;7.43;6.93;;;10.70;99.90;;;;;;4993818;28;20170;-85
2022/04/01 07:25:13;;;;;;;6.83;6.33;;;10.70;99.90;;;;;;4993852;28;20181;-84
2022/04/01 07:27:39;;;;;;;6.80;6.30;;;10.70;99.90;;;;;;4994041;28;20635;-84
2022/04/01 07:30:08;;;;;;;6.80;6.27;;;10.80;99.90;;;;;;4993755;28;20209;-84
2022/04/01 07:32:35;;;;;;;6.67;6.13;;;10.80;99.90;;;;;;4996946;28;20645;-85
2022/04/01 07:35:07;;;;;;;7.97;6.23;;;10.80;99.90;;;;;;4997616;28;20260;-84
2022/04/01 07:37:33;;;;;;;6.63;6.13;;;10.80;99.90;;;;;;4997605;28;20249;-86
2022/04/01 07:40:00;;;;;;;7.17;6.47;;;11.00;99.90;;;;;;4997469;28;20649;-84
2022/04/01 07:42:27;;;;;;;7.37;6.73;;;11.00;99.90;;;;;;4998129;28;20170;-85
2022/04/01 07:44:54;;;;;;;7.40;6.80;;;11.10;99.90;;;;;;5003228;28;20203;-84
2022/04/01 07:47:21;;;;;;;8.33;6.33;;;11.30;99.90;;;;;;4999019;28;20291;-85
2022/04/01 07:49:48;;;;;;;7.10;6.50;;;11.40;99.90;;;;;;5005417;28;20183;-84
2022/04/01 07:52:15;;;;;;;6.30;5.83;;;11.50;99.90;;;;;;4982253;28;20189;-88
2022/04/01 07:54:43;;;;;;;6.30;5.80;;;11.50;99.90;;;;;;4998541;28;20171;-86
2022/04/01 07:57:10;;;;;;;5.77;5.37;;;11.50;99.90;;;;;;4998300;28;20172;-86
2022/04/01 07:59:36;;;;;;;6.07;5.60;;;11.50;99.90;;;;;;4998483;28;20262;-88
2022/04/01 08:02:04;;;;;;;6.73;6.13;;;11.50;99.90;;;;;;4984009;28;20228;-87
2022/04/01 08:04:29;;;;;;;6.80;6.20;;;11.70;99.90;;;;;;5000838;28;20198;-85
2022/04/01 08:06:57;;;;;;;6.27;5.87;;;11.70;99.90;;;;;;4999932;28;20265;-89
2022/04/01 08:09:26;;;;;;;6.50;6.00;;;11.70;99.90;;;;;;4997700;28;20264;-87
2022/04/01 08:11:53;;;;;;;6.10;5.60;;;11.50;99.90;;;;;;4980664;28;20588;-85
2022/04/01 08:14:19;;;;;;;6.20;5.70;;;11.50;99.90;;;;;;4998958;28;20177;-86
2022/04/01 08:16:46;;;;;;;6.23;5.47;;;11.50;99.90;;;;;;5002213;28;20183;-90
2022/04/01 08:19:12;;;;;;;5.27;4.87;;;11.50;99.90;;;;;;5001529;28;20174;-89
2022/04/01 08:21:38;;;;;;;5.27;4.97;;;11.50;99.90;;;;;;5000916;28;20175;-88
2022/04/01 08:24:05;;;;;;;5.50;5.10;;;11.50;99.90;;;;;;5006969;28;20169;-89
2022/04/01 08:26:30;;;;;;;5.20;4.80;;;11.40;99.90;;;;;;5009735;28;20237;-83
2022/04/01 08:28:56;;;;;;;5.53;5.13;;;11.40;99.90;;;;;;5013763;28;20553;-85
2022/04/01 08:31:24;;;;;;;5.90;5.50;;;11.40;99.90;;;;;;5011522;28;20180;-85
2022/04/01 08:33:53;;;;;;;5.60;5.20;;;11.50;99.90;;;;;;4992773;28;20175;-84
2022/04/01 08:36:19;;;;;;;5.93;5.53;;;11.60;99.90;;;;;;5013427;28;20193;-84
2022/04/01 08:38:45;;;;;;;5.97;5.47;;;11.60;99.90;;;;;;5015741;28;20266;-83
2022/04/01 08:41:17;;;;;;;6.10;5.70;;;11.80;99.90;;;;;;5013324;28;20230;-86
2022/04/01 08:43:45;;;;;;;6.17;5.67;;;11.90;99.90;;;;;;5001510;28;20169;-84
2022/04/01 08:46:12;;;;;;;5.83;5.43;;;12.00;99.90;;;;;;4998279;28;20210;-85
2022/04/01 08:48:38;;;;;;;5.90;5.50;;;12.20;99.90;;;;;;4998061;28;20178;-84
2022/04/01 08:51:04;;;;;;;5.50;5.17;;;12.40;99.90;;;;;;4999007;28;20242;-84
2022/04/01 08:53:37;;;;;;;6.30;5.70;;;12.40;99.90;;;;;;4998647;28;20183;-86
2022/04/01 08:56:04;;;;;;;5.73;5.33;;;12.40;99.90;;;;;;4979360;28;20174;-84
2022/04/01 08:58:30;;;;;;;6.60;6.10;;;12.50;99.90;;;;;;4996691;28;20171;-83
2022/04/01 09:00:58;;;;;;;6.53;5.93;;;12.60;99.90;;;;;;4979226;28;20621;-86
2022/04/01 09:03:24;;;;;;;5.53;5.20;;;12.60;99.90;;;;;;4996673;28;20178;-84
2022/04/01 09:05:56;;;;;;;5.63;5.23;;;12.80;99.90;;;;;;4998957;28;20185;-85
2022/04/01 09:08:35;;;;;;;5.30;5.00;;;12.80;99.90;;;;;;5001096;28;20256;-84
2022/04/01 09:11:17;;;;;;;5.50;5.10;;;12.90;99.90;;;;;;4998473;28;20162;-83
2022/04/01 09:13:42;;;;;;;4.43;4.13;;;13.00;99.90;;;;;;4995963;28;20253;-84
2022/04/01 09:16:21;;;;;;;4.07;3.87;;;13.10;99.90;;;;;;4995992;28;20261;-84
2022/04/01 09:18:47;;;;;;;3.13;3.00;;;13.10;99.90;;;;;;4996712;28;20641;-86
2022/04/01 09:21:14;;;;;;;4.43;3.10;;;13.10;99.90;;;;;;4997610;28;20174;-88
2022/04/01 09:23:47;;;;;;;3.13;2.83;;;13.20;99.90;;;;;;4996058;28;20643;-84
2022/04/01 09:26:13;;;;;;;2.97;2.77;;;13.50;99.90;;;;;;4995995;28;20304;-88
2022/04/01 09:28:41;;;;;;;2.70;2.60;;;13.60;99.90;;;;;;4996090;28;20649;-86
2022/04/01 09:31:10;;;;;;;2.70;2.50;;;13.50;99.90;;;;;;4996546;28;20177;-89
2022/04/01 09:33:42;;;;;;;2.50;2.30;;;13.60;99.90;;;;;;4996716;28;20643;-87
2022/04/01 09:36:10;;;;;;;3.00;2.90;;;13.60;99.90;;;;;;4997028;28;20200;-90
2022/04/01 09:38:36;;;;;;;3.17;3.07;;;13.70;99.90;;;;;;4996462;28;20180;-90
2022/04/01 09:41:08;;;;;;;2.80;2.60;;;13.80;99.90;;;;;;4997376;28;20629;-91
2022/04/01 09:43:38;;;;;;;2.70;2.50;;;13.90;99.90;;;;;;4996630;28;20167;-88
2022/04/01 09:46:20;;;;;;;3.57;2.70;;;14.00;99.90;;;;;;4996262;28;20173;-86
2022/04/01 09:48:48;;;;;;;3.43;2.20;;;14.00;99.90;;;;;;4981195;28;20219;-85
2022/04/01 09:51:14;;;;;;;2.10;2.00;;;14.00;99.90;;;;;;4998119;28;20252;-84
2022/04/01 09:53:49;;;;;;;2.27;2.17;;;14.10;99.90;;;;;;4996835;28;20202;-86
2022/04/01 09:56:15;;;;;;;2.50;2.30;;;14.10;99.90;;;;;;5001657;28;20168;-84
2022/04/01 09:58:42;;;;;;;2.57;2.47;;;14.10;99.90;;;;;;4999733;28;20622;-84
2022/04/01 10:01:08;;;;;;;2.47;2.33;;;14.10;99.90;;;;;;4996496;28;20185;-87
2022/04/01 10:03:34;;;;;;;2.20;2.10;;;14.10;99.90;;;;;;4996614;28;20541;-85
2022/04/01 10:06:01;;;;;;;2.00;1.90;;;14.30;99.90;;;;;;4978209;28;20189;-84
2022/04/01 10:08:28;;;;;;;2.03;1.93;;;14.20;99.90;;;;;;4978183;28;20191;-85
2022/04/01 10:10:55;;;;;;;1.90;1.80;;;14.20;99.90;;;;;;4997059;28;20277;-87
2022/04/01 10:13:25;;;;;;;2.30;2.00;;;14.20;99.70;;;;;;5003157;28;20198;-86
2022/04/01 10:15:53;;;;;;;2.00;1.90;;;14.30;99.10;;;;;;4996779;28;20167;-88
2022/04/01 10:18:20;;;;;;;1.70;1.70;;;14.30;99.60;;;;;;4997570;28;20182;-85
2022/04/01 10:20:47;;;;;;;1.87;1.70;;;14.30;99.90;;;;;;5003516;28;20240;-86
2022/04/01 10:23:13;;;;;;;2.03;1.60;;;14.40;99.90;;;;;;5001366;28;20173;-84
2022/04/01 10:25:48;;;;;;;1.93;1.83;;;14.50;99.90;;;;;;5002759;28;20688;-86
2022/04/01 10:28:16;;;;;;;1.90;1.90;;;14.50;99.90;;;;;;5000996;28;20204;-83
2022/04/01 10:30:54;;;;;;;2.17;1.60;;;14.50;99.90;;;;;;4997447;28;20162;-87
2022/04/01 10:33:26;;;;;;;1.90;1.80;;;14.30;99.70;;;;;;4996328;28;20574;-84
2022/04/01 10:35:54;;;;;;;2.00;1.90;;;14.20;99.90;;;;;;4977979;28;20298;-86
2022/04/01 10:38:24;;;;;;;2.23;1.90;;;14.30;99.90;;;;;;4996027;28;20526;-90
2022/04/01 10:40:50;;;;;;;3.43;2.30;;;14.30;99.90;;;;;;4974245;28;20269;-86
2022/04/01 10:43:22;;;;;;;5.80;3.73;;;14.40;99.90;;;;;;4976924;28;20542;-86
2022/04/01 10:46:02;;;;;;;3.30;2.77;;;14.40;99.80;;;;;;4984238;28;20173;-85
2022/04/01 10:51:37;;;;;;;2.33;2.10;;;14.20;99.90;;;;;;4980125;28;20220;-85
2022/04/01 10:54:29;;;;;;;2.00;2.00;;;14.00;99.80;;;;;;4976308;28;20215;-86
2022/04/01 10:57:06;;;;;;;1.83;1.83;;;13.80;99.80;;;;;;4975891;28;20277;-90
2022/04/01 11:00:00;;;;;;;2.23;2.00;;;13.80;99.90;;;;;;4975827;28;20221;-89
2022/04/01 11:02:26;;;;;;;2.30;2.10;;;13.90;99.90;;;;;;4971607;28;20658;-86
2022/04/01 11:04:54;;;;;;;2.33;2.23;;;14.10;99.90;;;;;;4976802;28;20250;-85
2022/04/01 11:07:22;;;;;;;2.10;2.00;;;14.20;99.90;;;;;;4979982;28;20611;-86
2022/04/01 11:09:52;;;;;;;2.10;2.00;;;14.20;99.60;;;;;;4979950;28;20261;-86
2022/04/01 11:12:21;;;;;;;5.03;2.60;;;14.10;99.90;;;;;;4979695;28;20181;-85
2022/04/01 11:14:56;;;;;;;2.30;2.00;;;14.10;99.90;;;;;;4980298;28;20177;-88
2022/04/01 11:17:34;;;;;;;2.47;2.37;;;14.10;99.90;;;;;;4979393;28;20533;-86
2022/04/01 11:20:31;;;;;;;2.77;2.60;;;14.10;99.90;;;;;;4979207;28;20496;-85
2022/04/01 11:22:59;;;;;;;2.53;2.43;;;14.00;99.90;;;;;;4980743;28;20512;-86
2022/04/01 11:25:25;;;;;;;2.53;2.33;;;14.10;99.90;;;;;;4981755;28;20181;-87
2022/04/01 11:28:14;;;;;;;2.57;2.40;;;14.30;99.90;;;;;;4979575;28;20210;-85
2022/04/01 11:30:40;;;;;;;3.07;2.87;;;14.50;99.90;;;;;;4979086;28;20159;-86
2022/04/01 11:33:14;;;;;;;2.63;2.43;;;14.60;99.70;;;;;;4978975;28;20177;-85
2022/04/01 11:35:44;;;;;;;2.10;2.00;;;14.60;99.00;;;;;;4979122;28;20162;-84
2022/04/01 11:38:13;;;;;;;2.57;2.37;;;14.60;99.00;;;;;;4979105;28;20170;-86
2022/04/01 11:40:40;;;;;;;2.50;2.40;;;14.40;99.10;;;;;;4991970;28;20701;-87
2022/04/01 11:43:09;;;;;;;2.60;2.10;;;14.40;99.50;;;;;;4980985;28;20185;-87
2022/04/01 11:45:57;;;;;;;2.70;2.40;;;14.40;99.50;;;;;;4999175;28;20170;-84
2022/04/01 11:48:26;;;;;;;3.53;3.23;;;14.50;98.80;;;;;;4997034;28;20221;-85
2022/04/01 11:51:03;;;;;;;2.40;2.20;;;14.50;99.20;;;;;;4998616;28;20668;-85
2022/04/01 11:53:35;;;;;;;2.30;2.20;;;14.50;99.50;;;;;;4997606;28;20653;-85
2022/04/01 11:56:02;;;;;;;3.13;2.30;;;14.60;99.90;;;;;;5003049;28;20166;-87
2022/04/01 11:58:46;;;;;;;2.63;2.43;;;14.50;99.50;;;;;;5001613;28;20188;-83
2022/04/01 12:01:13;;;;;;;2.17;2.10;;;14.40;99.70;;;;;;5001927;28;20178;-86
2022/04/01 12:03:39;;;;;;;2.00;1.90;;;14.30;99.50;;;;;;4982773;28;20178;-85
2022/04/01 12:09:04;;;;;;;2.30;2.20;;;14.10;99.90;;;;;;4975563;28;20749;-90
2022/04/01 12:11:39;;;;;;;2.47;2.27;;;13.90;99.80;;;;;;4980058;28;20181;-89
2022/04/01 12:14:05;;;;;;;2.73;2.53;;;13.80;99.70;;;;;;4997267;28;20163;-87
2022/04/01 12:16:31;;;;;;;2.13;2.03;;;13.60;99.90;;;;;;4999904;28;20174;-84
2022/04/01 12:18:57;;;;;;;4.50;2.33;;;13.70;99.80;;;;;;4998828;28;20171;-83
2022/04/01 12:21:24;;;;;;;4.33;3.93;;;13.80;99.80;;;;;;4997714;28;20184;-84
2022/04/01 12:23:50;;;;;;;2.73;2.63;;;13.70;99.30;;;;;;4998095;28;20205;-89
2022/04/01 12:26:24;;;;;;;2.63;2.53;;;13.70;99.80;;;;;;4999145;28;20224;-85
2022/04/01 12:28:50;;;;;;;2.63;2.53;;;13.60;99.90;;;;;;4982391;28;20211;-87
2022/04/01 12:31:21;;;;;;;3.47;2.77;;;13.80;99.90;;;;;;4999822;28;20541;-89
2022/04/01 12:33:55;;;;;;;2.60;2.40;;;13.80;99.90;;;;;;5001946;28;20170;-87
2022/04/01 12:36:34;;;;;;;2.70;2.60;;;13.70;99.90;;;;;;5009030;28;20173;-87
2022/04/01 12:39:12;;;;;;;2.80;2.70;;;13.80;99.90;;;;;;5007741;28;20186;-88
2022/04/01 12:41:54;;;;;;;2.70;2.50;;;13.70;99.90;;;;;;4969086;28;20198;-82
2022/04/01 12:44:32;;;;;;;2.60;2.50;;;13.60;99.90;;;;;;4968118;28;20610;-84
2022/04/01 12:47:02;;;;;;;3.97;2.60;;;13.70;99.90;;;;;;4968473;28;20269;-83
2022/04/01 12:49:32;;;;;;;2.67;2.57;;;13.70;99.90;;;;;;4967853;28;20226;-83
2022/04/01 12:52:12;;;;;;;2.50;2.40;;;13.80;99.90;;;;;;4962642;29;20229;-86
2022/04/01 12:54:40;;;;;;;2.80;2.60;;;13.80;99.90;;;;;;4961640;28;20165;-85
2022/04/01 12:57:11;;;;;;;2.50;2.40;;;13.90;99.80;;;;;;4961462;28;20178;-89
2022/04/01 12:59:42;;;;;;;3.00;2.80;;;13.90;99.80;;;;;;4958269;28;20687;-90
2022/04/01 13:02:15;;;;;;;2.93;2.70;;;13.70;99.90;;;;;;4969415;28;20179;-83
2022/04/01 13:04:49;;;;;;;7.70;2.70;;;13.70;99.90;;;;;;4971429;28;20185;-83
2022/04/01 13:07:21;;;;;;;2.67;2.57;;;13.70;99.90;;;;;;4967729;28;20195;-84
2022/04/01 13:09:57;;;;;;;3.53;2.57;;;13.70;99.90;;;;;;4960942;28;20204;-89
2022/04/01 13:12:37;;;;;;;3.77;2.60;;;13.60;99.90;;;;;;4959938;28;20159;-85
2022/04/01 13:15:06;;;;;;;2.70;2.20;;;13.40;99.90;;;;;;4961794;28;20737;-88
2022/04/01 13:17:49;;;;;;;2.60;2.50;;;13.50;99.90;;;;;;4966513;28;20661;-90
2022/04/01 13:20:30;;;;;;;2.70;2.60;;;13.60;99.90;;;;;;4966588;28;20638;-84